createdAt,value
2022-11-10T00:02:50.767Z,17.10
2022-11-10T00:08:13.626Z,20.35
2022-11-10T00:13:59.823Z,24.55
2022-11-10T00:19:22.158Z,24.27
2022-11-10T00:24:44.881Z,19.52
2022-11-10T00:30:09.156Z,26.00
2022-11-10T00:35:31.207Z,17.48
2022-11-10T00:40:52.960Z,20.98
2022-11-10T00:46:16.493Z,26.00
2022-11-10T00:51:38.382Z,26.42
2022-11-10T00:57:00.355Z,19.95
2022-11-10T01:02:23.640Z,22.05
2022-11-10T01:07:45.326Z,19.52
2022-11-10T01:13:07.091Z,15.90
2022-11-10T01:18:30.354Z,30.12
2022-11-10T01:23:52.455Z,22.90
2022-11-10T01:29:14.245Z,15.93
2022-11-10T01:34:37.302Z,15.23
2022-11-10T01:39:59.168Z,21.33
2022-11-10T01:45:45.199Z,17.50
2022-11-10T01:51:13.891Z,26.35
2022-11-10T01:56:40.866Z,22.13
2022-11-10T02:02:21.858Z,29.02
2022-11-10T02:07:46.204Z,23.83
2022-11-10T02:13:07.939Z,25.60
2022-11-10T02:18:29.712Z,21.77
2022-11-10T02:23:54.373Z,27.20
2022-11-10T02:29:16.357Z,17.62
2022-11-10T02:34:38.399Z,20.83
2022-11-10T02:40:01.898Z,24.33
2022-11-10T02:45:23.925Z,30.40
2022-11-10T02:50:45.647Z,13.35
2022-11-10T02:56:09.147Z,19.33
2022-11-10T03:01:31.181Z,19.10
2022-11-10T03:06:52.948Z,28.70
2022-11-10T03:12:16.070Z,27.27
2022-11-10T03:17:37.794Z,22.40
2022-11-10T03:23:03.695Z,19.62
2022-11-10T03:28:27.344Z,23.40
2022-11-10T03:33:49.081Z,26.05
2022-11-10T03:39:10.925Z,23.15
2022-11-10T03:44:34.069Z,21.60
2022-11-10T03:49:55.828Z,18.23
2022-11-10T03:55:19.841Z,23.52
2022-11-10T04:00:43.101Z,23.10
2022-11-10T04:06:22.406Z,29.50
2022-11-10T04:12:01.793Z,22.67
2022-11-10T04:17:25.231Z,24.45
2022-11-10T04:23:04.304Z,26.70
2022-11-10T04:28:26.323Z,25.62
2022-11-10T04:33:50.730Z,15.45
2022-11-10T04:39:12.888Z,23.50
2022-11-10T04:44:34.886Z,27.10
2022-11-10T04:49:58.188Z,22.77
2022-11-10T04:55:19.967Z,31.45
2022-11-10T05:00:42.934Z,19.60
2022-11-10T05:06:06.208Z,29.67
2022-11-10T05:11:28.148Z,21.65
2022-11-10T05:16:49.918Z,36.25
2022-11-10T05:22:12.908Z,23.55
2022-11-10T05:27:34.611Z,21.23
2022-11-10T05:32:56.619Z,30.25
2022-11-10T05:38:19.951Z,23.67
2022-11-10T05:43:41.556Z,23.70
2022-11-10T05:49:03.263Z,24.52
2022-11-10T05:54:26.385Z,22.50
2022-11-10T05:59:48.323Z,33.72
2022-11-10T06:05:10.840Z,25.33
2022-11-10T06:10:35.044Z,28.52
2022-11-10T06:15:56.879Z,31.83
2022-11-10T06:21:18.572Z,27.23
2022-11-10T06:26:41.649Z,29.05
2022-11-10T06:32:03.570Z,28.73
2022-11-10T06:37:25.285Z,30.25
2022-11-10T06:42:48.951Z,32.85
2022-11-10T06:48:13.691Z,22.52
2022-11-10T06:53:35.667Z,29.92
2022-11-10T06:58:59.200Z,32.63
2022-11-10T07:04:21.310Z,19.65
2022-11-10T07:09:43.247Z,36.13
2022-11-10T07:15:07.381Z,27.20
2022-11-10T07:20:29.510Z,32.78
2022-11-10T07:25:51.464Z,25.05
2022-11-10T07:31:14.813Z,17.83
2022-11-10T07:36:36.885Z,27.83
2022-11-10T07:41:59.000Z,33.55
2022-11-10T07:47:22.646Z,23.23
2022-11-10T07:52:44.675Z,22.15
2022-11-10T07:58:07.065Z,19.92
2022-11-10T08:03:30.405Z,28.67
2022-11-10T08:08:52.075Z,30.85
2022-11-10T08:14:13.815Z,28.10
2022-11-10T08:19:36.966Z,25.23
2022-11-10T08:24:58.565Z,22.00
2022-11-10T08:30:20.438Z,19.35
2022-11-10T08:35:45.908Z,29.05
2022-11-10T08:41:08.427Z,25.10
2022-11-10T08:46:30.058Z,18.92
2022-11-10T08:51:53.290Z,20.75
2022-11-10T08:57:14.929Z,24.67
2022-11-10T09:02:36.718Z,27.00
2022-11-10T09:07:59.914Z,26.30
2022-11-10T09:13:27.958Z,27.08
2022-11-10T09:18:51.694Z,22.35
2022-11-10T09:24:14.923Z,24.52
2022-11-10T09:29:36.714Z,19.95
2022-11-10T09:34:58.568Z,26.55
2022-11-10T09:40:26.565Z,29.67
2022-11-10T09:51:18.312Z,22.23
2022-11-10T09:56:42.122Z,12.98
2022-11-10T10:02:06.382Z,17.60
2022-11-10T10:07:37.222Z,20.00
2022-11-10T10:13:20.220Z,17.48
2022-11-10T10:18:53.052Z,18.58
2022-11-10T10:24:21.791Z,14.98
2022-11-10T10:29:48.068Z,15.63
2022-11-10T10:35:15.098Z,17.27
2022-11-10T10:40:37.032Z,11.82
2022-11-10T10:46:09.221Z,20.75
2022-11-10T10:51:32.245Z,13.60
2022-11-10T10:57:03.533Z,13.07
2022-11-10T11:02:31.127Z,14.73
2022-11-10T11:07:56.174Z,16.98
2022-11-10T11:13:23.782Z,19.12
2022-11-10T11:18:47.021Z,13.27
2022-11-10T11:24:25.698Z,18.48
2022-11-10T11:30:02.989Z,14.23
2022-11-10T11:35:33.911Z,8.57
2022-11-10T11:41:10.123Z,14.75
2022-11-10T11:46:38.274Z,19.62
2022-11-10T11:52:08.745Z,15.55
2022-11-10T11:57:43.631Z,13.02
2022-11-10T12:03:34.138Z,13.45
2022-11-10T12:09:02.696Z,10.98
2022-11-10T12:14:33.196Z,11.32
2022-11-10T12:20:04.233Z,11.82
2022-11-10T12:25:32.695Z,11.63
2022-11-10T12:31:01.914Z,9.60
2022-11-10T12:36:25.602Z,7.97
2022-11-10T12:41:52.387Z,9.40
2022-11-10T12:47:19.951Z,11.07
2022-11-10T12:52:46.995Z,10.45
2022-11-10T12:58:14.454Z,10.80
2022-11-10T13:03:39.070Z,9.50
2022-11-10T13:09:00.980Z,11.30
2022-11-10T13:14:30.723Z,19.87
2022-11-10T13:19:54.027Z,7.97
2022-11-10T13:25:59.342Z,13.45
2022-11-10T13:31:54.017Z,13.10
2022-11-10T13:37:55.484Z,9.48
2022-11-10T13:43:26.302Z,8.52
2022-11-10T13:49:15.315Z,10.20
2022-11-10T13:54:59.901Z,14.13
2022-11-10T14:00:28.189Z,10.57
2022-11-10T14:06:13.570Z,12.60
2022-11-10T14:11:39.146Z,12.05
2022-11-10T14:17:01.306Z,9.07
2022-11-10T14:22:30.899Z,6.25
2022-11-10T14:27:57.891Z,5.45
2022-11-10T14:33:21.566Z,8.48
2022-11-10T14:38:46.016Z,7.07
2022-11-10T14:44:09.119Z,3.05
2022-11-10T14:49:30.818Z,4.25
2022-11-10T14:54:53.939Z,9.68
2022-11-10T15:00:20.066Z,4.00
2022-11-10T15:05:42.529Z,7.82
2022-11-10T15:11:06.128Z,5.45
2022-11-10T15:16:30.348Z,4.00
2022-11-10T15:21:52.075Z,7.70
2022-11-10T15:27:26.548Z,10.60
2022-11-10T15:32:49.233Z,6.05
2022-11-10T15:38:26.895Z,6.18
2022-11-10T15:43:50.963Z,7.82
2022-11-10T15:49:18.041Z,11.82
2022-11-10T15:54:40.054Z,13.97
2022-11-10T16:00:03.731Z,4.28
2022-11-10T16:05:25.624Z,10.13
2022-11-10T16:10:49.062Z,6.70
2022-11-10T16:16:14.460Z,4.50
2022-11-10T16:21:36.545Z,4.72
2022-11-10T16:26:59.194Z,9.85
2022-11-10T16:32:22.628Z,10.75
2022-11-10T16:37:44.901Z,6.80
2022-11-10T16:43:14.956Z,8.13
2022-11-10T16:48:38.072Z,11.18
2022-11-10T16:54:00.344Z,10.95
2022-11-10T16:59:22.257Z,8.60
2022-11-10T17:04:45.229Z,14.25
2022-11-10T17:10:14.168Z,10.48
2022-11-10T17:15:35.996Z,7.05
2022-11-10T17:20:59.846Z,8.05
2022-11-10T17:26:22.910Z,8.48
2022-11-10T17:31:44.980Z,6.82
2022-11-10T17:37:12.312Z,7.75
2022-11-10T17:42:34.170Z,9.98
2022-11-10T17:47:56.009Z,10.50
2022-11-10T17:53:23.901Z,10.73
2022-11-10T18:04:07.544Z,9.27
2022-11-10T18:09:30.629Z,9.63
2022-11-10T18:14:52.622Z,10.52
2022-11-10T18:20:15.214Z,9.27
2022-11-10T18:25:39.454Z,16.85
2022-11-10T18:31:07.000Z,12.52
2022-11-10T18:36:29.158Z,12.88
2022-11-10T18:41:52.590Z,8.88
2022-11-10T18:47:15.068Z,11.43
2022-11-10T18:52:37.282Z,6.68
2022-11-10T18:58:00.863Z,13.70
2022-11-10T19:03:23.077Z,15.35
2022-11-10T19:08:45.793Z,8.75
2022-11-10T19:14:09.051Z,11.77
2022-11-10T19:19:31.027Z,8.93
2022-11-10T19:25:07.511Z,10.50
2022-11-10T19:30:32.047Z,17.27
2022-11-10T19:35:53.828Z,8.52
2022-11-10T19:41:17.890Z,12.10
2022-11-10T19:46:41.365Z,14.93
2022-11-10T19:52:03.134Z,13.62
2022-11-10T19:57:24.872Z,12.88
2022-11-10T20:02:48.123Z,15.30
2022-11-10T20:08:13.434Z,18.52
2022-11-10T20:13:36.056Z,16.08
2022-11-10T20:18:59.224Z,13.45
2022-11-10T20:24:21.058Z,14.93
2022-11-10T20:29:44.333Z,16.23
2022-11-10T20:35:08.387Z,18.12
2022-11-10T20:40:44.078Z,11.65
2022-11-10T20:46:08.334Z,19.10
2022-11-10T20:51:32.007Z,14.73
2022-11-10T20:56:54.680Z,15.35
2022-11-10T21:02:16.699Z,17.02
2022-11-10T21:07:39.891Z,18.05
2022-11-10T21:13:01.771Z,14.87
2022-11-10T21:18:24.828Z,19.83
2022-11-10T21:23:48.224Z,17.98
2022-11-10T21:29:11.535Z,20.25
2022-11-10T21:34:33.829Z,16.30
2022-11-10T21:39:56.836Z,16.48
2022-11-10T21:45:18.609Z,13.65
2022-11-10T21:50:40.293Z,16.70
2022-11-10T21:56:05.665Z,15.93
2022-11-10T22:01:28.003Z,19.50
2022-11-10T22:07:07.302Z,13.80
2022-11-10T22:12:48.240Z,16.30
2022-11-10T22:18:31.753Z,20.67
2022-11-10T22:24:13.715Z,21.98
2022-11-10T22:29:36.721Z,19.42
2022-11-10T22:34:58.371Z,17.92
2022-11-10T22:40:37.542Z,19.95
2022-11-10T22:46:01.052Z,19.65
2022-11-10T22:51:22.849Z,14.23
2022-11-10T22:56:45.149Z,14.98
2022-11-10T23:02:08.309Z,14.68
2022-11-10T23:07:30.169Z,17.58
2022-11-10T23:12:54.488Z,27.67
2022-11-10T23:18:17.579Z,24.05
2022-11-10T23:23:41.008Z,25.12
2022-11-10T23:29:02.996Z,20.88
2022-11-10T23:34:26.106Z,17.92
2022-11-10T23:39:47.926Z,17.90
2022-11-10T23:45:11.021Z,22.25
2022-11-10T23:50:35.126Z,30.58
2022-11-10T23:55:57.875Z,27.42
